Skip to main content Skip to accessibility
This website is not compatible with your web browser. You should install a newer browser. If you live in Jersey and need help upgrading call the States of Jersey web team on 440099.
gov.je

L'înformâtion et les sèrvices publyis pouor I'Île dé Jèrri

CI Airfield TAFs

JERSEY - EGJJ

290638Z 2906/2915 25011KT 9999 FEW008 SCT015 TEMPO 2906/2908 8000 -RADZ BKN006=

GUERNSEY - EGJB

290638Z 2906/2915 25011KT 9999 FEW008 SCT015 TEMPO 2906/2909 8000 -RADZ BKN006=

ALDERNEY - EGJA

290638Z 2907/2915 25011KT 9999 FEW008 SCT015 TEMPO 2907/2910 3000 -RADZ BKN003=

Back to top
rating button